Time;durP1;ratioP1;P1;durP2;ratioP2;P2;SDS_P1;SDS_P2;PMS_P1;PMS_P2;Temp;Humidity;BMP_temperature;BMP_pressure;BME280_temperature;BME280_humidity;BME280_pressure;Samples;Min_cycle;Max_cycle;Signal;HPM_P1;HPM_P2
2023/06/18 00:01:26;;;;;;;41.92;29.20;;;17.60;99.90;;;;;;5101616;28;20209;-79
2023/06/18 00:03:52;;;;;;;42.83;29.10;;;17.60;99.90;;;;;;5101127;28;20598;-79
2023/06/18 00:06:17;;;;;;;42.70;28.80;;;17.60;99.90;;;;;;5100539;27;20563;-79
2023/06/18 00:08:44;;;;;;;43.25;29.35;;;17.50;99.90;;;;;;5096466;28;20190;-79
2023/06/18 00:11:10;;;;;;;41.22;29.17;;;17.50;99.90;;;;;;5102843;27;20302;-79
2023/06/18 00:13:36;;;;;;;45.65;29.85;;;17.50;99.90;;;;;;5109718;27;20237;-81
2023/06/18 00:16:02;;;;;;;44.38;30.13;;;17.50;99.90;;;;;;5109581;28;20196;-80
2023/06/18 00:18:27;;;;;;;45.20;30.25;;;17.40;99.90;;;;;;5100020;28;20174;-79
2023/06/18 00:20:53;;;;;;;42.88;30.60;;;17.40;99.90;;;;;;5102252;28;20615;-79
2023/06/18 00:23:19;;;;;;;42.92;30.45;;;17.40;99.90;;;;;;5104253;27;20200;-79
2023/06/18 00:25:45;;;;;;;43.70;30.48;;;17.40;99.90;;;;;;5101152;27;20529;-79
2023/06/18 00:28:10;;;;;;;47.65;30.23;;;17.40;99.90;;;;;;5099685;28;20258;-80
2023/06/18 00:30:36;;;;;;;46.10;31.85;;;17.40;99.90;;;;;;5093154;28;20220;-79
2023/06/18 00:33:03;;;;;;;44.67;30.60;;;17.40;99.90;;;;;;5094751;28;20205;-83
2023/06/18 00:35:30;;;;;;;43.58;31.50;;;17.30;99.90;;;;;;5082354;28;20178;-80
2023/06/18 00:37:55;;;;;;;44.65;31.80;;;17.30;99.90;;;;;;5096910;27;20182;-79
2023/06/18 00:40:21;;;;;;;44.25;31.20;;;17.30;99.90;;;;;;5104243;27;20181;-80
2023/06/18 00:42:48;;;;;;;47.92;30.60;;;17.30;99.90;;;;;;5100080;27;20182;-81
2023/06/18 00:45:16;;;;;;;50.47;31.58;;;17.30;99.90;;;;;;5091611;28;20213;-80
2023/06/18 00:47:44;;;;;;;44.25;30.67;;;17.30;99.90;;;;;;5088465;28;20610;-79
2023/06/18 00:50:16;;;;;;;43.17;31.10;;;17.30;99.90;;;;;;5095481;27;20206;-80
2023/06/18 00:52:44;;;;;;;51.80;31.20;;;17.20;99.90;;;;;;5103850;28;20188;-79
2023/06/18 00:55:16;;;;;;;45.50;31.25;;;17.20;99.90;;;;;;5083214;28;20613;-81
2023/06/18 00:57:49;;;;;;;45.58;30.98;;;17.20;99.90;;;;;;5092907;28;20178;-79
2023/06/18 01:00:16;;;;;;;43.17;29.83;;;17.20;99.90;;;;;;5085401;27;20177;-80
2023/06/18 01:02:45;;;;;;;43.55;29.95;;;17.10;99.90;;;;;;5083502;28;20557;-80
2023/06/18 01:05:15;;;;;;;44.95;30.55;;;17.10;99.90;;;;;;5067463;28;20231;-78
2023/06/18 01:07:42;;;;;;;48.45;31.40;;;17.10;99.90;;;;;;5095465;27;20178;-78
2023/06/18 01:10:08;;;;;;;44.72;31.17;;;17.10;99.90;;;;;;5093933;28;20733;-78
2023/06/18 01:12:34;;;;;;;44.42;30.88;;;17.10;99.90;;;;;;5095164;28;20208;-82
2023/06/18 01:15:00;;;;;;;45.13;31.40;;;17.10;99.90;;;;;;5090705;27;20221;-78
2023/06/18 01:17:33;;;;;;;47.90;32.95;;;17.10;99.90;;;;;;5103176;28;20258;-78
2023/06/18 01:20:10;;;;;;;45.30;31.10;;;17.10;99.90;;;;;;5073489;28;20170;-78
2023/06/18 01:22:46;;;;;;;46.67;32.67;;;17.10;99.90;;;;;;5094976;28;20612;-78
2023/06/18 01:25:13;;;;;;;47.72;32.25;;;17.00;99.90;;;;;;5107947;28;20180;-79
2023/06/18 01:27:40;;;;;;;49.33;32.60;;;17.00;99.90;;;;;;5096743;28;20578;-80
2023/06/18 01:30:11;;;;;;;46.95;31.50;;;17.00;99.90;;;;;;5077931;28;20664;-79
2023/06/18 01:32:38;;;;;;;49.08;31.88;;;17.00;99.90;;;;;;5097862;28;20189;-78
2023/06/18 01:35:14;;;;;;;47.55;30.52;;;17.00;99.90;;;;;;5104288;28;20217;-82
2023/06/18 01:37:59;;;;;;;49.85;33.63;;;17.00;99.90;;;;;;5081820;28;20304;-79
2023/06/18 01:40:56;;;;;;;48.65;31.95;;;17.00;99.90;;;;;;5089500;28;20201;-78
2023/06/18 01:43:50;;;;;;;49.13;33.08;;;16.90;99.90;;;;;;5075228;28;20255;-78
2023/06/18 01:46:23;;;;;;;51.08;34.20;;;16.90;99.90;;;;;;5098988;28;20177;-78
2023/06/18 01:48:59;;;;;;;53.47;35.03;;;16.90;99.90;;;;;;5100820;28;20181;-78
2023/06/18 01:51:27;;;;;;;54.58;34.85;;;16.80;99.90;;;;;;5080366;28;20177;-79
2023/06/18 01:53:55;;;;;;;52.30;33.25;;;16.80;99.90;;;;;;5089189;28;20213;-79
2023/06/18 01:56:22;;;;;;;50.30;33.10;;;16.80;99.90;;;;;;5099126;28;20186;-79
2023/06/18 01:58:48;;;;;;;51.35;34.35;;;16.80;99.90;;;;;;5098516;28;20637;-79
2023/06/18 02:01:14;;;;;;;50.63;33.15;;;16.80;99.90;;;;;;5097197;28;20170;-79
2023/06/18 02:03:40;;;;;;;59.10;34.72;;;16.80;99.90;;;;;;5097723;28;20190;-78
2023/06/18 02:06:06;;;;;;;52.45;33.85;;;16.80;99.90;;;;;;5093669;28;20272;-83
2023/06/18 02:08:32;;;;;;;49.95;34.28;;;16.80;99.90;;;;;;5096018;28;20182;-79
2023/06/18 02:10:59;;;;;;;51.60;35.05;;;16.80;99.90;;;;;;5104462;28;20192;-79
2023/06/18 02:13:24;;;;;;;51.40;34.08;;;16.80;99.90;;;;;;5100353;28;20501;-79
2023/06/18 02:15:50;;;;;;;55.55;34.20;;;16.70;99.90;;;;;;5097357;28;20188;-79
2023/06/18 02:18:17;;;;;;;51.95;33.22;;;16.80;99.90;;;;;;5099621;27;20659;-79
2023/06/18 02:20:44;;;;;;;51.85;34.25;;;16.70;99.90;;;;;;5102838;28;20571;-79
2023/06/18 02:23:10;;;;;;;53.60;34.55;;;16.70;99.90;;;;;;5095753;27;20178;-79
2023/06/18 02:25:35;;;;;;;53.92;34.42;;;16.70;99.90;;;;;;5097692;27;20227;-79
2023/06/18 02:28:03;;;;;;;52.10;33.05;;;16.70;99.90;;;;;;5102063;28;20492;-79
2023/06/18 02:30:29;;;;;;;53.30;34.92;;;16.70;99.90;;;;;;5106471;28;20190;-80
2023/06/18 02:33:00;;;;;;;52.00;34.88;;;16.70;99.90;;;;;;5099747;28;20190;-81
2023/06/18 02:35:27;;;;;;;55.50;36.50;;;16.70;99.90;;;;;;5089402;28;20720;-80
2023/06/18 02:37:53;;;;;;;55.58;36.03;;;16.60;99.90;;;;;;5092993;27;20186;-78
2023/06/18 02:40:20;;;;;;;53.05;34.08;;;16.60;99.90;;;;;;5101474;28;20242;-78
2023/06/18 02:42:48;;;;;;;55.45;35.17;;;16.60;99.90;;;;;;5104649;28;20581;-80
2023/06/18 02:45:14;;;;;;;55.00;33.80;;;16.60;99.90;;;;;;5102139;28;20193;-79
2023/06/18 02:47:40;;;;;;;85.95;28.15;;;16.50;99.90;;;;;;5106462;28;20189;-77
2023/06/18 02:50:07;;;;;;;107.43;29.17;;;16.50;99.90;;;;;;5095250;27;20201;-76
2023/06/18 02:52:33;;;;;;;67.95;27.33;;;16.40;99.90;;;;;;5106186;27;20247;-80
2023/06/18 02:54:58;;;;;;;197.30;28.88;;;16.30;99.90;;;;;;5113399;27;20554;-78
2023/06/18 02:57:24;;;;;;;67.15;29.75;;;16.20;99.90;;;;;;5101350;27;20966;-77
2023/06/18 02:59:50;;;;;;;76.38;32.08;;;16.20;99.90;;;;;;5097928;27;20185;-78
2023/06/18 03:02:16;;;;;;;124.78;32.05;;;16.10;99.90;;;;;;5078971;28;20552;-78
2023/06/18 03:04:42;;;;;;;88.15;33.95;;;16.10;99.90;;;;;;5105420;27;20216;-78
2023/06/18 03:07:08;;;;;;;114.32;35.35;;;16.00;99.90;;;;;;5085123;28;20591;-79
2023/06/18 03:09:35;;;;;;;86.45;35.17;;;16.00;99.90;;;;;;5086768;28;20201;-78
2023/06/18 03:12:01;;;;;;;56.28;33.97;;;15.90;99.90;;;;;;5092774;28;20540;-78
2023/06/18 03:14:26;;;;;;;56.05;34.83;;;15.90;99.90;;;;;;5095627;28;20249;-79
2023/06/18 03:16:52;;;;;;;69.82;34.38;;;15.90;99.90;;;;;;5107232;28;20182;-78
2023/06/18 03:19:20;;;;;;;71.63;34.78;;;15.90;99.90;;;;;;5102707;28;20273;-79
2023/06/18 03:21:46;;;;;;;86.78;34.92;;;15.90;99.90;;;;;;5098724;27;20327;-79
2023/06/18 03:24:11;;;;;;;94.80;34.33;;;15.90;99.90;;;;;;5100644;27;20177;-79
2023/06/18 03:26:37;;;;;;;58.35;34.17;;;15.90;99.90;;;;;;5107951;27;20177;-79
2023/06/18 03:29:05;;;;;;;55.05;35.58;;;15.90;99.90;;;;;;5096678;28;20206;-82
2023/06/18 03:31:32;;;;;;;54.22;33.65;;;15.90;99.90;;;;;;5081527;28;20197;-79
2023/06/18 03:34:01;;;;;;;60.38;34.33;;;15.90;99.90;;;;;;5097567;27;20241;-79
2023/06/18 03:36:29;;;;;;;65.95;34.95;;;15.90;99.90;;;;;;5102048;28;20191;-79
2023/06/18 03:38:56;;;;;;;63.67;34.80;;;15.90;99.90;;;;;;5097336;28;20689;-79
2023/06/18 03:41:22;;;;;;;63.92;36.15;;;15.90;99.90;;;;;;5101811;28;20212;-78
2023/06/18 03:43:49;;;;;;;65.88;37.03;;;15.90;99.90;;;;;;5093645;28;20641;-80
2023/06/18 03:46:15;;;;;;;85.28;36.22;;;15.90;99.90;;;;;;5089689;28;20185;-80
2023/06/18 03:48:43;;;;;;;55.25;35.25;;;15.90;99.90;;;;;;5097047;27;20237;-79
2023/06/18 03:51:09;;;;;;;65.90;36.38;;;15.90;99.90;;;;;;5102077;27;20268;-80
2023/06/18 03:53:37;;;;;;;71.20;36.17;;;16.00;99.90;;;;;;5098090;27;20221;-79
2023/06/18 03:56:08;;;;;;;66.40;36.42;;;16.00;99.90;;;;;;5102520;28;20251;-81
2023/06/18 03:58:34;;;;;;;81.20;35.28;;;16.00;99.90;;;;;;5095915;27;20182;-79
2023/06/18 04:01:00;;;;;;;62.00;34.67;;;16.00;99.90;;;;;;5082573;28;20177;-79
2023/06/18 04:03:27;;;;;;;65.30;32.00;;;15.90;99.90;;;;;;5100580;27;20285;-79
2023/06/18 04:05:53;;;;;;;61.53;31.92;;;15.90;99.90;;;;;;5080541;28;20177;-79
2023/06/18 04:08:19;;;;;;;74.82;29.65;;;15.90;99.90;;;;;;5099030;28;20181;-79
2023/06/18 04:10:47;;;;;;;55.45;29.20;;;15.90;99.90;;;;;;5102473;27;20685;-80
2023/06/18 04:13:17;;;;;;;79.90;28.73;;;15.90;99.90;;;;;;5083796;27;20206;-82
2023/06/18 04:15:43;;;;;;;100.00;28.40;;;15.90;99.90;;;;;;5093386;28;20253;-79
2023/06/18 04:18:10;;;;;;;74.53;29.55;;;16.00;99.90;;;;;;5095392;28;20185;-79
2023/06/18 04:20:36;;;;;;;126.30;30.02;;;15.90;99.90;;;;;;5099378;28;20193;-79
2023/06/18 04:23:02;;;;;;;102.13;29.80;;;16.00;99.90;;;;;;5101011;28;20625;-84
2023/06/18 04:25:29;;;;;;;58.53;30.38;;;16.00;99.90;;;;;;5102935;28;20666;-78
2023/06/18 04:27:57;;;;;;;67.63;28.60;;;16.00;99.90;;;;;;5104886;27;20249;-79
2023/06/18 04:30:23;;;;;;;53.53;29.52;;;16.00;99.90;;;;;;5074672;28;20281;-79
2023/06/18 04:32:50;;;;;;;53.85;30.27;;;16.00;99.90;;;;;;5092593;28;20188;-79
2023/06/18 04:35:19;;;;;;;73.57;28.65;;;16.00;99.90;;;;;;5093298;27;20538;-79
2023/06/18 04:37:45;;;;;;;52.22;29.30;;;16.10;99.90;;;;;;5080887;28;20182;-81
2023/06/18 04:40:12;;;;;;;50.42;29.67;;;16.00;99.90;;;;;;5090804;27;20613;-79
2023/06/18 04:42:39;;;;;;;86.20;30.80;;;16.10;99.90;;;;;;5100715;28;20197;-79
2023/06/18 04:45:09;;;;;;;56.55;29.40;;;16.10;99.90;;;;;;5092161;27;20243;-79
2023/06/18 04:47:35;;;;;;;54.13;31.10;;;16.10;99.90;;;;;;5094276;28;20293;-79
2023/06/18 04:50:03;;;;;;;63.45;32.47;;;16.20;99.90;;;;;;5066463;28;20197;-79
2023/06/18 04:52:30;;;;;;;66.53;31.38;;;16.20;99.90;;;;;;5099488;27;20212;-79
2023/06/18 04:54:56;;;;;;;83.45;30.48;;;16.20;99.90;;;;;;5097385;27;20634;-79
2023/06/18 04:57:23;;;;;;;53.47;30.95;;;16.20;99.90;;;;;;5098459;28;20273;-78
2023/06/18 04:59:50;;;;;;;49.58;30.30;;;16.20;99.90;;;;;;5094674;28;20264;-82
2023/06/18 05:02:17;;;;;;;51.35;30.55;;;16.30;99.90;;;;;;5101113;27;20239;-80
2023/06/18 05:04:43;;;;;;;54.13;29.83;;;16.30;99.90;;;;;;5065667;28;20231;-79
2023/06/18 05:07:09;;;;;;;47.00;29.23;;;16.30;99.90;;;;;;5097313;27;20182;-79
2023/06/18 05:09:36;;;;;;;45.15;28.02;;;16.20;99.90;;;;;;5083048;28;20181;-80
2023/06/18 05:12:02;;;;;;;49.10;28.15;;;16.30;99.90;;;;;;5093148;28;20215;-82
2023/06/18 05:14:29;;;;;;;46.25;27.30;;;16.30;99.90;;;;;;5091976;28;20209;-80
2023/06/18 05:16:56;;;;;;;52.78;29.25;;;16.30;99.90;;;;;;5100466;28;20192;-80
2023/06/18 05:19:23;;;;;;;41.55;27.63;;;16.30;99.90;;;;;;5097238;28;20276;-79
2023/06/18 05:21:50;;;;;;;38.63;26.20;;;16.40;99.90;;;;;;5070215;28;20268;-80
2023/06/18 05:24:18;;;;;;;36.67;25.38;;;16.40;99.90;;;;;;5103205;28;20189;-80
2023/06/18 05:26:45;;;;;;;34.25;24.98;;;16.50;99.90;;;;;;5094958;28;20280;-82
2023/06/18 05:29:11;;;;;;;38.33;26.45;;;16.40;99.90;;;;;;5085818;28;20231;-80
2023/06/18 05:31:37;;;;;;;38.03;27.08;;;16.50;99.90;;;;;;5088631;28;20200;-79
2023/06/18 05:34:07;;;;;;;37.15;24.60;;;16.50;99.90;;;;;;5076276;28;20625;-84
2023/06/18 05:36:33;;;;;;;37.42;25.92;;;16.60;99.90;;;;;;5097124;28;20188;-79
2023/06/18 05:39:00;;;;;;;32.83;24.77;;;16.60;99.90;;;;;;5094062;28;20236;-79
2023/06/18 05:41:27;;;;;;;35.42;26.08;;;16.70;99.90;;;;;;5098154;28;20181;-80
2023/06/18 05:43:54;;;;;;;34.28;24.55;;;16.70;99.90;;;;;;5093356;28;20224;-80
2023/06/18 05:46:20;;;;;;;36.40;25.23;;;16.80;99.90;;;;;;5101847;28;20219;-79
2023/06/18 05:48:46;;;;;;;34.17;24.85;;;16.80;99.90;;;;;;5065431;28;20185;-79
2023/06/18 05:51:16;;;;;;;33.03;23.38;;;16.80;99.90;;;;;;5093456;28;20189;-79
2023/06/18 05:53:42;;;;;;;34.92;24.98;;;16.80;99.90;;;;;;5093570;28;20217;-79
2023/06/18 05:56:09;;;;;;;34.83;24.30;;;16.90;99.90;;;;;;5073222;28;20255;-80
2023/06/18 05:58:34;;;;;;;32.38;24.17;;;16.90;99.90;;;;;;5102724;28;20414;-79
2023/06/18 06:01:01;;;;;;;34.72;24.02;;;17.00;99.90;;;;;;5102048;28;20181;-79
2023/06/18 06:03:26;;;;;;;31.50;23.55;;;17.00;99.90;;;;;;5096195;28;20686;-78
2023/06/18 06:05:52;;;;;;;32.17;23.00;;;17.10;99.90;;;;;;5081469;28;20209;-78
2023/06/18 06:08:18;;;;;;;31.70;23.60;;;17.10;99.90;;;;;;5096156;28;20201;-78
2023/06/18 06:10:51;;;;;;;31.50;23.00;;;17.10;99.90;;;;;;5098222;28;20190;-78
2023/06/18 06:13:20;;;;;;;30.50;21.77;;;17.20;99.90;;;;;;5098974;28;20280;-78
2023/06/18 06:15:47;;;;;;;29.25;21.77;;;17.20;99.90;;;;;;5079056;28;20545;-78
2023/06/18 06:18:13;;;;;;;31.73;21.75;;;17.20;99.90;;;;;;5101333;28;20280;-79
2023/06/18 06:20:39;;;;;;;27.73;21.65;;;17.30;99.90;;;;;;5079228;28;20182;-78
2023/06/18 06:23:05;;;;;;;31.17;21.50;;;17.30;99.90;;;;;;5094051;28;20207;-79
2023/06/18 06:25:31;;;;;;;29.30;22.02;;;17.40;99.90;;;;;;5082879;28;20629;-78
2023/06/18 06:27:58;;;;;;;27.83;21.23;;;17.50;99.90;;;;;;5099208;28;20276;-77
2023/06/18 06:30:23;;;;;;;27.05;20.67;;;17.50;99.90;;;;;;5098894;28;20640;-78
2023/06/18 06:32:55;;;;;;;26.65;20.20;;;17.60;99.90;;;;;;5078877;28;20182;-78
2023/06/18 06:35:21;;;;;;;27.13;21.15;;;17.60;99.90;;;;;;5083400;28;20283;-78
2023/06/18 06:37:46;;;;;;;27.25;20.50;;;17.70;99.90;;;;;;5104465;28;20185;-78
2023/06/18 06:40:13;;;;;;;27.40;20.80;;;17.80;99.90;;;;;;5094429;28;20209;-78
2023/06/18 06:42:41;;;;;;;29.17;19.77;;;17.80;99.90;;;;;;5088642;28;20586;-78
2023/06/18 06:45:27;;;;;;;25.65;18.98;;;17.90;99.90;;;;;;5082261;28;20185;-78
2023/06/18 06:48:04;;;;;;;27.33;19.70;;;17.90;99.90;;;;;;5103810;28;20200;-78
2023/06/18 06:50:50;;;;;;;26.65;19.52;;;18.00;99.90;;;;;;5104695;28;20628;-78
2023/06/18 06:53:25;;;;;;;25.05;19.13;;;18.10;99.90;;;;;;5088217;28;20175;-79
2023/06/18 06:55:51;;;;;;;23.50;18.48;;;18.20;99.90;;;;;;5089822;28;20185;-78
2023/06/18 06:58:20;;;;;;;29.25;19.23;;;18.30;99.90;;;;;;5095489;28;20213;-78
2023/06/18 07:00:46;;;;;;;25.17;19.60;;;18.40;99.90;;;;;;5047333;28;20178;-83
2023/06/18 07:03:12;;;;;;;24.75;19.25;;;18.50;99.90;;;;;;5103789;27;20242;-78
2023/06/18 07:05:37;;;;;;;27.35;20.83;;;18.60;99.90;;;;;;5097282;28;20189;-78
2023/06/18 07:08:05;;;;;;;24.13;19.15;;;18.70;99.90;;;;;;5102591;28;20614;-80
2023/06/18 07:10:32;;;;;;;27.10;20.42;;;18.70;99.90;;;;;;5089246;28;20189;-81
2023/06/18 07:12:58;;;;;;;26.08;20.17;;;18.80;99.90;;;;;;5099796;28;20185;-79
2023/06/18 07:15:24;;;;;;;28.88;19.58;;;18.90;99.90;;;;;;5106430;28;20201;-78
2023/06/18 07:17:50;;;;;;;24.85;18.98;;;18.90;99.90;;;;;;5106248;27;20177;-79
2023/06/18 07:20:16;;;;;;;26.00;19.23;;;19.00;99.90;;;;;;5099437;27;20289;-81
2023/06/18 07:22:42;;;;;;;24.27;18.38;;;19.10;99.90;;;;;;5101166;27;20578;-76
2023/06/18 07:25:08;;;;;;;26.17;19.33;;;19.20;99.90;;;;;;5099964;28;20182;-78
2023/06/18 07:27:34;;;;;;;23.27;18.15;;;19.30;99.90;;;;;;5100951;28;20185;-79
2023/06/18 07:30:00;;;;;;;21.63;17.23;;;19.50;99.90;;;;;;5095958;28;20629;-78
2023/06/18 07:32:26;;;;;;;23.40;18.77;;;19.50;99.90;;;;;;5093495;28;20178;-78
2023/06/18 07:34:52;;;;;;;27.10;18.73;;;19.50;99.90;;;;;;5099901;28;20213;-80
2023/06/18 07:37:18;;;;;;;25.13;19.08;;;19.60;99.90;;;;;;5090086;28;20190;-79
2023/06/18 07:39:43;;;;;;;25.13;19.52;;;19.70;99.90;;;;;;5100200;28;20677;-81
2023/06/18 07:42:09;;;;;;;26.08;19.60;;;19.70;99.90;;;;;;5107195;28;20177;-80
2023/06/18 07:44:35;;;;;;;23.73;18.88;;;19.80;99.90;;;;;;5101538;28;20637;-82
2023/06/18 07:47:01;;;;;;;26.88;20.30;;;19.90;99.90;;;;;;5089949;28;20194;-83
2023/06/18 07:49:27;;;;;;;24.77;19.45;;;20.00;99.90;;;;;;5104297;27;20209;-79
2023/06/18 07:51:54;;;;;;;26.85;19.40;;;20.10;99.90;;;;;;5099967;27;20178;-82
2023/06/18 07:54:21;;;;;;;29.23;19.25;;;20.20;99.90;;;;;;5094847;27;20296;-80
2023/06/18 07:56:47;;;;;;;24.00;17.92;;;20.30;99.90;;;;;;5095954;27;20233;-79
2023/06/18 07:59:12;;;;;;;28.15;18.45;;;20.40;99.90;;;;;;5093224;27;20182;-80
2023/06/18 08:01:38;;;;;;;27.55;20.10;;;20.60;99.90;;;;;;5084824;28;20216;-81
2023/06/18 08:04:04;;;;;;;25.17;18.83;;;20.60;99.90;;;;;;5099071;27;20232;-79
2023/06/18 08:06:30;;;;;;;27.45;19.42;;;20.70;99.90;;;;;;5092520;28;20185;-80
2023/06/18 08:08:55;;;;;;;29.02;19.75;;;20.80;99.90;;;;;;5096583;28;20174;-83
2023/06/18 08:11:21;;;;;;;24.77;18.70;;;20.90;99.90;;;;;;5100252;28;20260;-79
2023/06/18 08:13:47;;;;;;;24.42;18.75;;;21.00;99.90;;;;;;5107868;28;20220;-81
2023/06/18 08:16:13;;;;;;;25.23;19.00;;;21.10;99.90;;;;;;5099813;27;20645;-80
2023/06/18 08:18:39;;;;;;;25.48;17.50;;;21.20;99.90;;;;;;5087201;28;20273;-85
2023/06/18 08:21:04;;;;;;;23.63;17.75;;;21.30;99.90;;;;;;5096823;27;20430;-81
2023/06/18 08:23:30;;;;;;;25.80;17.30;;;21.50;99.90;;;;;;5095530;28;20250;-81
2023/06/18 08:25:56;;;;;;;22.33;16.05;;;21.60;99.90;;;;;;5093940;28;20186;-80
2023/06/18 08:28:22;;;;;;;21.23;15.30;;;21.80;99.90;;;;;;5096474;28;20224;-80
2023/06/18 08:30:47;;;;;;;24.05;17.65;;;21.90;99.90;;;;;;5098050;28;20178;-80
2023/06/18 08:33:13;;;;;;;27.83;17.23;;;22.10;99.90;;;;;;5097350;27;20188;-79
2023/06/18 08:35:39;;;;;;;21.45;16.50;;;22.20;99.90;;;;;;5098159;28;20218;-77
2023/06/18 08:38:06;;;;;;;24.67;16.65;;;22.30;99.90;;;;;;5092731;28;20267;-76
2023/06/18 08:40:39;;;;;;;24.88;16.35;;;22.50;99.90;;;;;;5102998;28;20193;-81
2023/06/18 08:43:09;;;;;;;22.38;16.17;;;22.60;99.90;;;;;;5095515;28;20166;-77
2023/06/18 08:45:35;;;;;;;23.20;16.73;;;22.70;99.90;;;;;;5106203;27;20186;-81
2023/06/18 08:48:04;;;;;;;24.52;16.92;;;22.80;99.90;;;;;;5094555;28;20184;-81
2023/06/18 08:50:31;;;;;;;21.77;16.83;;;23.00;99.90;;;;;;5090811;28;20594;-79
2023/06/18 08:53:04;;;;;;;19.70;15.75;;;23.00;99.90;;;;;;5093629;27;20181;-79
2023/06/18 08:55:31;;;;;;;22.23;16.52;;;23.10;99.90;;;;;;5101468;28;20223;-78
2023/06/18 08:58:04;;;;;;;20.15;16.38;;;23.30;99.90;;;;;;5099365;28;20287;-78
2023/06/18 09:00:30;;;;;;;24.77;16.52;;;23.40;99.90;;;;;;5107613;28;20489;-78
2023/06/18 09:02:57;;;;;;;20.42;16.05;;;23.50;99.90;;;;;;5098172;28;20181;-79
2023/06/18 09:05:23;;;;;;;19.45;15.23;;;23.70;99.90;;;;;;5099498;28;20697;-79
2023/06/18 09:07:50;;;;;;;23.85;15.10;;;23.70;99.90;;;;;;5093110;28;20227;-79
2023/06/18 09:10:17;;;;;;;21.42;15.20;;;23.80;99.90;;;;;;5102554;27;20630;-79
2023/06/18 09:12:43;;;;;;;18.73;13.88;;;23.90;99.90;;;;;;5110296;28;20177;-79
2023/06/18 09:15:09;;;;;;;20.63;14.40;;;23.90;99.90;;;;;;5090307;28;20260;-82
2023/06/18 09:17:37;;;;;;;17.13;13.50;;;24.00;99.90;;;;;;5103960;27;20192;-80
2023/06/18 09:20:06;;;;;;;19.15;12.52;;;24.10;99.90;;;;;;5095331;27;20228;-83
2023/06/18 09:22:45;;;;;;;15.05;10.95;;;24.30;99.90;;;;;;5097820;28;20186;-80
2023/06/18 09:25:10;;;;;;;18.08;10.85;;;24.40;99.90;;;;;;5106505;28;20318;-79
2023/06/18 09:27:40;;;;;;;19.63;13.20;;;24.50;99.90;;;;;;5107111;28;20652;-79
2023/06/18 09:30:06;;;;;;;15.88;13.35;;;24.70;99.90;;;;;;5106328;27;20185;-80
2023/06/18 09:32:45;;;;;;;19.48;12.98;;;24.80;99.90;;;;;;5100532;28;20186;-79
2023/06/18 09:35:13;;;;;;;18.55;11.18;;;24.90;99.90;;;;;;5097802;28;20196;-79
2023/06/18 09:37:40;;;;;;;16.77;10.30;;;25.00;99.90;;;;;;5091921;28;20188;-78
2023/06/18 09:40:15;;;;;;;15.05;10.38;;;25.20;99.90;;;;;;5102960;27;20561;-81
2023/06/18 09:42:41;;;;;;;20.10;12.10;;;25.30;99.90;;;;;;5099342;28;20170;-80
2023/06/18 09:45:09;;;;;;;17.00;10.15;;;25.40;99.90;;;;;;5097219;27;20177;-79
2023/06/18 09:47:37;;;;;;;13.52;9.20;;;25.40;99.90;;;;;;5109685;28;20211;-78
2023/06/18 09:50:04;;;;;;;15.60;10.68;;;25.50;99.90;;;;;;5112007;28;20187;-78
2023/06/18 09:52:30;;;;;;;13.38;9.35;;;25.60;99.90;;;;;;5100221;28;20181;-82
2023/06/18 09:54:57;;;;;;;12.40;8.60;;;25.80;99.90;;;;;;5093042;28;20217;-81
2023/06/18 09:57:23;;;;;;;11.90;8.50;;;25.90;99.90;;;;;;5108193;28;20544;-81
2023/06/18 10:00:09;;;;;;;13.35;8.68;;;26.00;99.90;;;;;;5091610;28;20288;-80
2023/06/18 10:02:37;;;;;;;16.30;10.43;;;26.10;99.90;;;;;;5096876;28;20193;-81
2023/06/18 10:05:03;;;;;;;17.10;9.48;;;26.20;99.80;;;;;;5111898;28;20198;-81
2023/06/18 10:07:31;;;;;;;13.40;9.75;;;26.30;99.50;;;;;;5075192;28;20190;-80
2023/06/18 10:09:57;;;;;;;13.50;8.75;;;26.50;99.40;;;;;;5091389;28;20186;-80
2023/06/18 10:12:23;;;;;;;14.25;8.38;;;26.60;98.50;;;;;;5091550;28;20636;-80
2023/06/18 10:14:53;;;;;;;12.32;8.85;;;26.80;97.80;;;;;;5110943;28;20318;-82
2023/06/18 10:17:35;;;;;;;14.05;8.45;;;26.90;96.90;;;;;;5109938;28;20177;-80
2023/06/18 10:20:07;;;;;;;12.98;8.55;;;26.90;95.80;;;;;;5101620;28;20212;-80
2023/06/18 10:23:00;;;;;;;15.27;8.93;;;27.10;95.00;;;;;;5110735;28;20182;-81
2023/06/18 10:25:29;;;;;;;14.00;8.55;;;27.20;94.50;;;;;;5085234;28;20275;-81
2023/06/18 10:27:55;;;;;;;15.57;7.93;;;27.30;93.60;;;;;;5109284;28;20226;-81
2023/06/18 10:30:22;;;;;;;11.43;7.47;;;27.40;92.50;;;;;;5110344;28;20208;-81
2023/06/18 10:32:48;;;;;;;12.60;7.95;;;27.40;90.90;;;;;;5108349;28;20195;-82
2023/06/18 10:35:14;;;;;;;11.50;8.80;;;27.40;90.60;;;;;;5108912;28;20224;-79
2023/06/18 10:37:43;;;;;;;14.45;9.05;;;27.50;90.60;;;;;;5098826;27;20710;-80
2023/06/18 10:40:10;;;;;;;10.00;8.05;;;27.60;90.00;;;;;;5093667;27;20232;-81
2023/06/18 10:42:36;;;;;;;12.13;8.13;;;27.70;89.20;;;;;;5098030;28;20304;-81
2023/06/18 10:45:09;;;;;;;12.27;8.13;;;27.80;88.10;;;;;;5114233;28;20208;-81
2023/06/18 10:47:36;;;;;;;12.18;8.30;;;27.90;87.40;;;;;;5110708;27;20174;-81
2023/06/18 10:50:07;;;;;;;10.30;7.68;;;28.00;85.90;;;;;;5103796;27;20173;-81
2023/06/18 10:52:38;;;;;;;12.15;8.80;;;28.00;84.30;;;;;;5111915;28;20185;-81
2023/06/18 10:55:15;;;;;;;12.73;7.72;;;28.10;83.80;;;;;;5098895;28;20282;-79
2023/06/18 10:57:43;;;;;;;12.43;7.68;;;28.10;83.20;;;;;;5111529;28;20601;-81
2023/06/18 11:00:15;;;;;;;9.15;6.95;;;28.20;80.40;;;;;;5104317;28;20195;-81
2023/06/18 11:02:41;;;;;;;11.05;7.95;;;28.30;78.80;;;;;;5109652;28;20185;-81
2023/06/18 11:05:15;;;;;;;12.57;8.05;;;28.30;77.70;;;;;;5097216;28;20714;-82
2023/06/18 11:07:41;;;;;;;10.18;7.90;;;28.40;76.50;;;;;;5093225;28;20185;-82
2023/06/18 11:10:07;;;;;;;11.50;8.00;;;28.40;75.60;;;;;;5075955;28;20185;-81
2023/06/18 11:12:38;;;;;;;15.07;9.00;;;28.40;75.00;;;;;;5107969;28;20199;-81
2023/06/18 11:15:15;;;;;;;11.00;7.70;;;28.50;74.90;;;;;;5093067;28;20281;-81
2023/06/18 11:17:43;;;;;;;12.23;8.15;;;28.60;74.80;;;;;;5094342;28;20185;-82
2023/06/18 11:20:11;;;;;;;11.20;7.75;;;28.60;74.60;;;;;;5107616;28;20270;-80
2023/06/18 11:22:37;;;;;;;9.57;7.72;;;28.60;73.30;;;;;;5111603;27;20190;-81
2023/06/18 11:25:06;;;;;;;11.05;8.00;;;28.60;72.70;;;;;;5110379;28;20641;-82
2023/06/18 11:27:32;;;;;;;13.00;8.13;;;28.60;71.70;;;;;;5111588;28;20196;-82
2023/06/18 11:29:59;;;;;;;18.08;7.90;;;28.50;71.30;;;;;;5099738;27;20199;-80
2023/06/18 11:32:25;;;;;;;13.73;8.15;;;28.50;70.40;;;;;;5106631;28;20251;-81
2023/06/18 11:34:53;;;;;;;12.32;8.00;;;28.60;70.00;;;;;;5107199;27;20260;-81
2023/06/18 11:37:19;;;;;;;15.40;8.25;;;28.60;69.50;;;;;;5092393;28;20673;-82
2023/06/18 11:39:47;;;;;;;11.90;8.20;;;28.60;68.80;;;;;;5106648;27;20331;-81
2023/06/18 11:42:20;;;;;;;9.68;7.88;;;28.50;69.40;;;;;;5082720;28;20545;-84
2023/06/18 11:44:47;;;;;;;12.80;7.90;;;28.40;69.60;;;;;;5106081;28;20188;-81
2023/06/18 11:47:13;;;;;;;14.27;8.18;;;28.40;69.90;;;;;;5107276;28;20259;-80
2023/06/18 11:49:45;;;;;;;9.80;8.25;;;28.40;69.90;;;;;;5106072;27;20260;-78
2023/06/18 11:52:14;;;;;;;12.00;7.88;;;28.40;69.70;;;;;;5110904;28;20184;-80
2023/06/18 11:54:40;;;;;;;12.02;8.00;;;28.30;69.30;;;;;;5100826;27;20211;-81
2023/06/18 11:57:11;;;;;;;10.50;8.07;;;28.30;69.30;;;;;;5097678;28;20173;-82
2023/06/18 11:59:39;;;;;;;10.35;7.90;;;28.30;69.20;;;;;;5096229;27;20260;-81
2023/06/18 12:02:26;;;;;;;12.85;7.78;;;28.30;69.00;;;;;;5104192;27;20172;-83
2023/06/18 12:04:57;;;;;;;12.05;8.10;;;28.30;68.50;;;;;;5096979;28;20196;-81
2023/06/18 12:07:24;;;;;;;10.75;8.63;;;28.40;68.40;;;;;;5099842;28;20185;-80
2023/06/18 12:09:52;;;;;;;12.18;8.30;;;28.40;68.40;;;;;;5093219;28;20193;-80
2023/06/18 12:12:27;;;;;;;10.02;8.00;;;28.50;68.40;;;;;;5093279;28;20188;-81
2023/06/18 12:14:58;;;;;;;9.98;7.22;;;28.50;68.30;;;;;;5094922;28;20601;-80
2023/06/18 12:17:49;;;;;;;12.20;8.00;;;28.50;67.90;;;;;;5110514;28;20248;-80
2023/06/18 12:20:17;;;;;;;9.25;7.28;;;28.60;67.90;;;;;;5099952;28;20231;-81
2023/06/18 12:22:43;;;;;;;9.45;7.43;;;28.60;67.60;;;;;;5096457;27;20189;-81
2023/06/18 12:25:11;;;;;;;10.95;8.27;;;28.60;67.20;;;;;;5101055;27;20295;-80
2023/06/18 12:27:37;;;;;;;9.88;7.70;;;28.60;67.10;;;;;;5108044;28;20699;-81
2023/06/18 12:30:07;;;;;;;16.30;7.80;;;28.70;67.20;;;;;;5098624;27;20173;-81
2023/06/18 12:32:35;;;;;;;8.95;7.80;;;28.70;66.20;;;;;;5112754;27;20186;-82